Aviation Digital Data Service (ADDS)

Output produced by METARs form (1523 UTC 03 June 2020)
found at http://www.aviationweather.gov/metar/data/
 
METAR text: UBBB 031500Z 33016KT CAVOK 24/14 Q1002 R88/CLRD// NOSIG
Conditions at: UBBB (BAKU/BINE ARPT , AZ) observed 1500 UTC 03 June 2020
Temperature: 24.0°C (75°F)
Dewpoint: 14.0°C (57°F) [RH = 54%]
Pressure (altimeter): 29.59 inches Hg (1002.0 mb)
Winds: from the NNW (330 degrees) at 18 MPH (16 knots; 8.2 m/s)
Visibility: 6 or more miles (10+ km)
Ceiling: ceiling and visibility are OK
Clouds: unknown
Weather: no significant weather observed at this time

METAR text: UBBB 031430Z 33016KT CAVOK 25/15 Q1001 R88/D NOSIG
Conditions at: UBBB (BAKU/BINE ARPT , AZ) observed 1430 UTC 03 June 2020
Temperature: 25.0°C (77°F)
Dewpoint: 15.0°C (59°F) [RH = 54%]
Pressure (altimeter): 29.56 inches Hg (1001.0 mb)
Winds: from the NNW (330 degrees) at 18 MPH (16 knots; 8.2 m/s)
Visibility: 6 or more miles (10+ km)
Ceiling: ceiling and visibility are OK
Clouds: unknown
Weather: no significant weather observed at this time

METAR text: UBBB 031400Z 32018KT CAVOK 25/15 Q1001 R88/D NOSIG
Conditions at: UBBB (BAKU/BINE ARPT , AZ) observed 1400 UTC 03 June 2020
Temperature: 25.0°C (77°F)
Dewpoint: 15.0°C (59°F) [RH = 54%]
Pressure (altimeter): 29.56 inches Hg (1001.0 mb)
Winds: from the NW (320 degrees) at 21 MPH (18 knots; 9.3 m/s)
Visibility: 6 or more miles (10+ km)
Ceiling: ceiling and visibility are OK
Clouds: unknown
Weather: no significant weather observed at this time

METAR text: UBBB 031330Z 31020KT CAVOK 26/15 Q1001 R88/D NOSIG
Conditions at: UBBB (BAKU/BINE ARPT , AZ) observed 1330 UTC 03 June 2020
Temperature: 26.0°C (79°F)
Dewpoint: 15.0°C (59°F) [RH = 51%]
Pressure (altimeter): 29.56 inches Hg (1001.0 mb)
Winds: from the NW (310 degrees) at 23 MPH (20 knots; 10.3 m/s)
Visibility: 6 or more miles (10+ km)
Ceiling: ceiling and visibility are OK
Clouds: unknown
Weather: no significant weather observed at this time

METAR text: UBBB 031300Z 30020KT CAVOK 28/15 Q1001 R88/CLRD// NOSIG
Conditions at: UBBB (BAKU/BINE ARPT , AZ) observed 1300 UTC 03 June 2020
Temperature: 28.0°C (82°F)
Dewpoint: 15.0°C (59°F) [RH = 45%]
Pressure (altimeter): 29.56 inches Hg (1001.0 mb)
Winds: from the WNW (300 degrees) at 23 MPH (20 knots; 10.3 m/s)
Visibility: 6 or more miles (10+ km)
Ceiling: ceiling and visibility are OK
Clouds: unknown
Weather: no significant weather observed at this time

METAR text: UBBB 031230Z 30014KT CAVOK 32/15 Q1000 R88/D NOSIG
Conditions at: UBBB (BAKU/BINE ARPT , AZ) observed 1230 UTC 03 June 2020
Temperature: 32.0°C (90°F)
Dewpoint: 15.0°C (59°F) [RH = 36%]
Pressure (altimeter): 29.53 inches Hg (1000.0 mb)
Winds: from the WNW (300 degrees) at 16 MPH (14 knots; 7.2 m/s)
Visibility: 6 or more miles (10+ km)
Ceiling: ceiling and visibility are OK
Clouds: unknown
Weather: no significant weather observed at this time

METAR text: UBBB 031200Z 31010KT CAVOK 34/18 Q0999 R88/D NOSIG
Conditions at: UBBB (BAKU/BINE ARPT , AZ) observed 1200 UTC 03 June 2020
Temperature: 34.0°C (93°F)
Dewpoint: 18.0°C (64°F) [RH = 39%]
Pressure (altimeter): 29.50 inches Hg (999.0 mb)
Winds: from the NW (310 degrees) at 12 MPH (10 knots; 5.1 m/s)
Visibility: 6 or more miles (10+ km)
Ceiling: ceiling and visibility are OK
Clouds: unknown
Weather: no significant weather observed at this time

METAR text: UBBB 031130Z 20010KT CAVOK 34/18 Q0999 R88/D NOSIG
Conditions at: UBBB (BAKU/BINE ARPT , AZ) observed 1130 UTC 03 June 2020
Temperature: 34.0°C (93°F)
Dewpoint: 18.0°C (64°F) [RH = 39%]
Pressure (altimeter): 29.50 inches Hg (999.0 mb)
Winds: from the SSW (200 degrees) at 12 MPH (10 knots; 5.1 m/s)
Visibility: 6 or more miles (10+ km)
Ceiling: ceiling and visibility are OK
Clouds: unknown
Weather: no significant weather observed at this time

METAR text: UBBB 031100Z 18016KT CAVOK 34/18 Q0999 R88/D NOSIG
Conditions at: UBBB (BAKU/BINE ARPT , AZ) observed 1100 UTC 03 June 2020
Temperature: 34.0°C (93°F)
Dewpoint: 18.0°C (64°F) [RH = 39%]
Pressure (altimeter): 29.50 inches Hg (999.0 mb)
Winds: from the S (180 degrees) at 18 MPH (16 knots; 8.2 m/s)
Visibility: 6 or more miles (10+ km)
Ceiling: ceiling and visibility are OK
Clouds: unknown
Weather: no significant weather observed at this time

METAR text: UBBB 031030Z 19014KT CAVOK 34/17 Q0999 R88/D NOSIG
Conditions at: UBBB (BAKU/BINE ARPT , AZ) observed 1030 UTC 03 June 2020
Temperature: 34.0°C (93°F)
Dewpoint: 17.0°C (63°F) [RH = 36%]
Pressure (altimeter): 29.50 inches Hg (999.0 mb)
Winds: from the S (190 degrees) at 16 MPH (14 knots; 7.2 m/s)
Visibility: 6 or more miles (10+ km)
Ceiling: ceiling and visibility are OK
Clouds: unknown
Weather: no significant weather observed at this time

METAR text: UBBB 031000Z 18012KT CAVOK 34/17 Q0999 R88/CLRD// NOSIG
Conditions at: UBBB (BAKU/BINE ARPT , AZ) observed 1000 UTC 03 June 2020
Temperature: 34.0°C (93°F)
Dewpoint: 17.0°C (63°F) [RH = 36%]
Pressure (altimeter): 29.50 inches Hg (999.0 mb)
Winds: from the S (180 degrees) at 14 MPH (12 knots; 6.2 m/s)
Visibility: 6 or more miles (10+ km)
Ceiling: ceiling and visibility are OK
Clouds: unknown
Weather: no significant weather observed at this time

METAR text: UBBB 030930Z 17014KT CAVOK 33/17 Q1000 R88/D NOSIG
Conditions at: UBBB (BAKU/BINE ARPT , AZ) observed 0930 UTC 03 June 2020
Temperature: 33.0°C (91°F)
Dewpoint: 17.0°C (63°F) [RH = 39%]
Pressure (altimeter): 29.53 inches Hg (1000.0 mb)
Winds: from the S (170 degrees) at 16 MPH (14 knots; 7.2 m/s)
Visibility: 6 or more miles (10+ km)
Ceiling: ceiling and visibility are OK
Clouds: unknown
Weather: no significant weather observed at this time

METAR text: UBBB 030900Z 17018KT CAVOK 31/16 Q1000 R88/D NOSIG
Conditions at: UBBB (BAKU/BINE ARPT , AZ) observed 0900 UTC 03 June 2020
Temperature: 31.0°C (88°F)
Dewpoint: 16.0°C (61°F) [RH = 40%]
Pressure (altimeter): 29.53 inches Hg (1000.0 mb)
Winds: from the S (170 degrees) at 21 MPH (18 knots; 9.3 m/s)
Visibility: 6 or more miles (10+ km)
Ceiling: ceiling and visibility are OK
Clouds: unknown
Weather: no significant weather observed at this time

METAR text: UBBB 030830Z 19016KT CAVOK 32/16 Q1000 R88/D NOSIG
Conditions at: UBBB (BAKU/BINE ARPT , AZ) observed 0830 UTC 03 June 2020
Temperature: 32.0°C (90°F)
Dewpoint: 16.0°C (61°F) [RH = 38%]
Pressure (altimeter): 29.53 inches Hg (1000.0 mb)
Winds: from the S (190 degrees) at 18 MPH (16 knots; 8.2 m/s)
Visibility: 6 or more miles (10+ km)
Ceiling: ceiling and visibility are OK
Clouds: unknown
Weather: no significant weather observed at this time

METAR text: UBBB 030800Z 19016KT CAVOK 30/16 Q1001 R88/D NOSIG
Conditions at: UBBB (BAKU/BINE ARPT , AZ) observed 0800 UTC 03 June 2020
Temperature: 30.0°C (86°F)
Dewpoint: 16.0°C (61°F) [RH = 43%]
Pressure (altimeter): 29.56 inches Hg (1001.0 mb)
Winds: from the S (190 degrees) at 18 MPH (16 knots; 8.2 m/s)
Visibility: 6 or more miles (10+ km)
Ceiling: ceiling and visibility are OK
Clouds: unknown
Weather: no significant weather observed at this time

METAR text: UBBB 030730Z 20014KT CAVOK 30/15 Q1001 R88/D NOSIG
Conditions at: UBBB (BAKU/BINE ARPT , AZ) observed 0730 UTC 03 June 2020
Temperature: 30.0°C (86°F)
Dewpoint: 15.0°C (59°F) [RH = 40%]
Pressure (altimeter): 29.56 inches Hg (1001.0 mb)
Winds: from the SSW (200 degrees) at 16 MPH (14 knots; 7.2 m/s)
Visibility: 6 or more miles (10+ km)
Ceiling: ceiling and visibility are OK
Clouds: unknown
Weather: no significant weather observed at this time

METAR text: UBBB 030700Z 19014KT CAVOK 30/15 Q1001 R88/CLRD// NOSIG
Conditions at: UBBB (BAKU/BINE ARPT , AZ) observed 0700 UTC 03 June 2020
Temperature: 30.0°C (86°F)
Dewpoint: 15.0°C (59°F) [RH = 40%]
Pressure (altimeter): 29.56 inches Hg (1001.0 mb)
Winds: from the S (190 degrees) at 16 MPH (14 knots; 7.2 m/s)
Visibility: 6 or more miles (10+ km)
Ceiling: ceiling and visibility are OK
Clouds: unknown
Weather: no significant weather observed at this time

METAR text: UBBB 030630Z 18012KT CAVOK 29/14 Q1001 R88/D NOSIG
Conditions at: UBBB (BAKU/BINE ARPT , AZ) observed 0630 UTC 03 June 2020
Temperature: 29.0°C (84°F)
Dewpoint: 14.0°C (57°F) [RH = 40%]
Pressure (altimeter): 29.56 inches Hg (1001.0 mb)
Winds: from the S (180 degrees) at 14 MPH (12 knots; 6.2 m/s)
Visibility: 6 or more miles (10+ km)
Ceiling: ceiling and visibility are OK
Clouds: unknown
Weather: no significant weather observed at this time

METAR text: UBBB 030600Z 22010KT CAVOK 28/14 Q1002 R88/CLRD// NOSIG
Conditions at: UBBB (BAKU/BINE ARPT , AZ) observed 0600 UTC 03 June 2020
Temperature: 28.0°C (82°F)
Dewpoint: 14.0°C (57°F) [RH = 42%]
Pressure (altimeter): 29.59 inches Hg (1002.0 mb)
Winds: from the SW (220 degrees) at 12 MPH (10 knots; 5.1 m/s)
Visibility: 6 or more miles (10+ km)
Ceiling: ceiling and visibility are OK
Clouds: unknown
Weather: no significant weather observed at this time

METAR text: UBBB 030530Z 20010KT CAVOK 28/14 Q1002 R88/D NOSIG
Conditions at: UBBB (BAKU/BINE ARPT , AZ) observed 0530 UTC 03 June 2020
Temperature: 28.0°C (82°F)
Dewpoint: 14.0°C (57°F) [RH = 42%]
Pressure (altimeter): 29.59 inches Hg (1002.0 mb)
Winds: from the SSW (200 degrees) at 12 MPH (10 knots; 5.1 m/s)
Visibility: 6 or more miles (10+ km)
Ceiling: ceiling and visibility are OK
Clouds: unknown
Weather: no significant weather observed at this time

METAR text: UBBB 030500Z 19006KT CAVOK 27/13 Q1002 R88/D NOSIG
Conditions at: UBBB (BAKU/BINE ARPT , AZ) observed 0500 UTC 03 June 2020
Temperature: 27.0°C (81°F)
Dewpoint: 13.0°C (55°F) [RH = 42%]
Pressure (altimeter): 29.59 inches Hg (1002.0 mb)
Winds: from the S (190 degrees) at 7 MPH (6 knots; 3.1 m/s)
Visibility: 6 or more miles (10+ km)
Ceiling: ceiling and visibility are OK
Clouds: unknown
Weather: no significant weather observed at this time

METAR text: UBBB 030430Z 17006KT CAVOK 26/13 Q1002 R88/D NOSIG
Conditions at: UBBB (BAKU/BINE ARPT , AZ) observed 0430 UTC 03 June 2020
Temperature: 26.0°C (79°F)
Dewpoint: 13.0°C (55°F) [RH = 45%]
Pressure (altimeter): 29.59 inches Hg (1002.0 mb)
Winds: from the S (170 degrees) at 7 MPH (6 knots; 3.1 m/s)
Visibility: 6 or more miles (10+ km)
Ceiling: ceiling and visibility are OK
Clouds: unknown
Weather: no significant weather observed at this time

METAR text: UBBB 030400Z 17006KT CAVOK 24/13 Q1003 R88/D NOSIG
Conditions at: UBBB (BAKU/BINE ARPT , AZ) observed 0400 UTC 03 June 2020
Temperature: 24.0°C (75°F)
Dewpoint: 13.0°C (55°F) [RH = 50%]
Pressure (altimeter): 29.62 inches Hg (1003.0 mb)
Winds: from the S (170 degrees) at 7 MPH (6 knots; 3.1 m/s)
Visibility: 6 or more miles (10+ km)
Ceiling: ceiling and visibility are OK
Clouds: unknown
Weather: no significant weather observed at this time

METAR text: UBBB 030330Z VRB02KT CAVOK 24/15 Q1003 R88/D NOSIG
Conditions at: UBBB (BAKU/BINE ARPT , AZ) observed 0330 UTC 03 June 2020
Temperature: 24.0°C (75°F)
Dewpoint: 15.0°C (59°F) [RH = 57%]
Pressure (altimeter): 29.62 inches Hg (1003.0 mb)
Winds: variable direction winds at 2 MPH (2 knots; 1.0 m/s)
Visibility: 6 or more miles (10+ km)
Ceiling: ceiling and visibility are OK
Clouds: unknown
Weather: no significant weather observed at this time

METAR text: UBBB 030300Z 29004KT CAVOK 22/14 Q1003 R88/D NOSIG
Conditions at: UBBB (BAKU/BINE ARPT , AZ) observed 0300 UTC 03 June 2020
Temperature: 22.0°C (72°F)
Dewpoint: 14.0°C (57°F) [RH = 60%]
Pressure (altimeter): 29.62 inches Hg (1003.0 mb)
Winds: from the WNW (290 degrees) at 5 MPH (4 knots; 2.1 m/s)
Visibility: 6 or more miles (10+ km)
Ceiling: ceiling and visibility are OK
Clouds: unknown
Weather: no significant weather observed at this time

METAR text: UBBB 030230Z VRB02KT CAVOK 20/16 Q1002 R88/D NOSIG
Conditions at: UBBB (BAKU/BINE ARPT , AZ) observed 0230 UTC 03 June 2020
Temperature: 20.0°C (68°F)
Dewpoint: 16.0°C (61°F) [RH = 78%]
Pressure (altimeter): 29.59 inches Hg (1002.0 mb)
Winds: variable direction winds at 2 MPH (2 knots; 1.0 m/s)
Visibility: 6 or more miles (10+ km)
Ceiling: ceiling and visibility are OK
Clouds: unknown
Weather: no significant weather observed at this time

METAR text: UBBB 030200Z 29002KT CAVOK 18/14 Q1002 R88/D NOSIG
Conditions at: UBBB (BAKU/BINE ARPT , AZ) observed 0200 UTC 03 June 2020
Temperature: 18.0°C (64°F)
Dewpoint: 14.0°C (57°F) [RH = 77%]
Pressure (altimeter): 29.59 inches Hg (1002.0 mb)
Winds: from the WNW (290 degrees) at 2 MPH (2 knots; 1.0 m/s)
Visibility: 6 or more miles (10+ km)
Ceiling: ceiling and visibility are OK
Clouds: unknown
Weather: no significant weather observed at this time

METAR text: UBBB 030130Z 31004KT CAVOK 17/14 Q1002 R88/D NOSIG
Conditions at: UBBB (BAKU/BINE ARPT , AZ) observed 0130 UTC 03 June 2020
Temperature: 17.0°C (63°F)
Dewpoint: 14.0°C (57°F) [RH = 82%]
Pressure (altimeter): 29.59 inches Hg (1002.0 mb)
Winds: from the NW (310 degrees) at 5 MPH (4 knots; 2.1 m/s)
Visibility: 6 or more miles (10+ km)
Ceiling: ceiling and visibility are OK
Clouds: unknown
Weather: no significant weather observed at this time

METAR text: UBBB 030100Z 00000KT CAVOK 18/15 Q1002 R88/CLRD// NOSIG
Conditions at: UBBB (BAKU/BINE ARPT , AZ) observed 0100 UTC 03 June 2020
Temperature: 18.0°C (64°F)
Dewpoint: 15.0°C (59°F) [RH = 83%]
Pressure (altimeter): 29.59 inches Hg (1002.0 mb)
Winds: calm
Visibility: 6 or more miles (10+ km)
Ceiling: ceiling and visibility are OK
Clouds: unknown
Weather: no significant weather observed at this time

METAR text: UBBB 030030Z VRB02KT 9999 SCT058CB 18/15 Q1003 R88/D NOSIG
Conditions at: UBBB (BAKU/BINE ARPT , AZ) observed 0030 UTC 03 June 2020
Temperature: 18.0°C (64°F)
Dewpoint: 15.0°C (59°F) [RH = 83%]
Pressure (altimeter): 29.62 inches Hg (1003.0 mb)
Winds: variable direction winds at 2 MPH (2 knots; 1.0 m/s)
Visibility: 6 or more miles (10+ km)
Ceiling: at least 12,000 feet AGL
Clouds: scattered clouds at 5800 feet AGL
Weather: no significant weather observed at this time

METAR text: UBBB 030000Z 30004KT 9999 SCT058CB 18/15 Q1003 R88/CLRD// NOSIG
Conditions at: UBBB (BAKU/BINE ARPT , AZ) observed 0000 UTC 03 June 2020
Temperature: 18.0°C (64°F)
Dewpoint: 15.0°C (59°F) [RH = 83%]
Pressure (altimeter): 29.62 inches Hg (1003.0 mb)
Winds: from the WNW (300 degrees) at 5 MPH (4 knots; 2.1 m/s)
Visibility: 6 or more miles (10+ km)
Ceiling: at least 12,000 feet AGL
Clouds: scattered clouds at 5800 feet AGL
Weather: no significant weather observed at this time

METAR text: UBBB 022330Z 32004KT 9999 SCT060CB 19/15 Q1003 R88/D NOSIG
Conditions at: UBBB (BAKU/BINE ARPT , AZ) observed 2330 UTC 02 June 2020
Temperature: 19.0°C (66°F)
Dewpoint: 15.0°C (59°F) [RH = 78%]
Pressure (altimeter): 29.62 inches Hg (1003.0 mb)
Winds: from the NW (320 degrees) at 5 MPH (4 knots; 2.1 m/s)
Visibility: 6 or more miles (10+ km)
Ceiling: at least 12,000 feet AGL
Clouds: scattered clouds at 6000 feet AGL
Weather: no significant weather observed at this time

METAR text: UBBB 022300Z 33004KT 9999 SCT058CB 19/15 Q1003 R88/D NOSIG
Conditions at: UBBB (BAKU/BINE ARPT , AZ) observed 2300 UTC 02 June 2020
Temperature: 19.0°C (66°F)
Dewpoint: 15.0°C (59°F) [RH = 78%]
Pressure (altimeter): 29.62 inches Hg (1003.0 mb)
Winds: from the NNW (330 degrees) at 5 MPH (4 knots; 2.1 m/s)
Visibility: 6 or more miles (10+ km)
Ceiling: at least 12,000 feet AGL
Clouds: scattered clouds at 5800 feet AGL
Weather: no significant weather observed at this time

METAR text: UBBB 022230Z VRB02KT 9999 SCT055CB 20/15 Q1003 R88/D NOSIG
Conditions at: UBBB (BAKU/BINE ARPT , AZ) observed 2230 UTC 02 June 2020
Temperature: 20.0°C (68°F)
Dewpoint: 15.0°C (59°F) [RH = 73%]
Pressure (altimeter): 29.62 inches Hg (1003.0 mb)
Winds: variable direction winds at 2 MPH (2 knots; 1.0 m/s)
Visibility: 6 or more miles (10+ km)
Ceiling: at least 12,000 feet AGL
Clouds: scattered clouds at 5500 feet AGL
Weather: no significant weather observed at this time

METAR text: UBBB 022200Z VRB02KT 9999 TS SCT060CB 20/15 Q1003 R88/D NOSIG
Conditions at: UBBB (BAKU/BINE ARPT , AZ) observed 2200 UTC 02 June 2020
Temperature: 20.0°C (68°F)
Dewpoint: 15.0°C (59°F) [RH = 73%]
Pressure (altimeter): 29.62 inches Hg (1003.0 mb)
Winds: variable direction winds at 2 MPH (2 knots; 1.0 m/s)
Visibility: 6 or more miles (10+ km)
Ceiling: at least 12,000 feet AGL
Clouds: scattered clouds at 6000 feet AGL
Weather: TS  (thunderstorm)

METAR text: UBBB 022130Z 07006KT 9999 SCT060CB 21/15 Q1003 R88/D NOSIG
Conditions at: UBBB (BAKU/BINE ARPT , AZ) observed 2130 UTC 02 June 2020
Temperature: 21.0°C (70°F)
Dewpoint: 15.0°C (59°F) [RH = 69%]
Pressure (altimeter): 29.62 inches Hg (1003.0 mb)
Winds: from the ENE (70 degrees) at 7 MPH (6 knots; 3.1 m/s)
Visibility: 6 or more miles (10+ km)
Ceiling: at least 12,000 feet AGL
Clouds: scattered clouds at 6000 feet AGL
Weather: no significant weather observed at this time

METAR text: UBBB 022100Z 01006KT 9999 SCT060CB 21/14 Q1003 R88/D NOSIG
Conditions at: UBBB (BAKU/BINE ARPT , AZ) observed 2100 UTC 02 June 2020
Temperature: 21.0°C (70°F)
Dewpoint: 14.0°C (57°F) [RH = 64%]
Pressure (altimeter): 29.62 inches Hg (1003.0 mb)
Winds: from the N (10 degrees) at 7 MPH (6 knots; 3.1 m/s)
Visibility: 6 or more miles (10+ km)
Ceiling: at least 12,000 feet AGL
Clouds: scattered clouds at 6000 feet AGL
Weather: no significant weather observed at this time

METAR text: UBBB 022030Z 36004KT 9999 SCT060CB 21/15 Q1003 R88/D NOSIG
Conditions at: UBBB (BAKU/BINE ARPT , AZ) observed 2030 UTC 02 June 2020
Temperature: 21.0°C (70°F)
Dewpoint: 15.0°C (59°F) [RH = 69%]
Pressure (altimeter): 29.62 inches Hg (1003.0 mb)
Winds: from the N (360 degrees) at 5 MPH (4 knots; 2.1 m/s)
Visibility: 6 or more miles (10+ km)
Ceiling: at least 12,000 feet AGL
Clouds: scattered clouds at 6000 feet AGL
Weather: no significant weather observed at this time

METAR text: UBBB 022000Z 34004KT 9999 FEW060CB 21/15 Q1004 R88/D NOSIG
Conditions at: UBBB (BAKU/BINE ARPT , AZ) observed 2000 UTC 02 June 2020
Temperature: 21.0°C (70°F)
Dewpoint: 15.0°C (59°F) [RH = 69%]
Pressure (altimeter): 29.65 inches Hg (1004.0 mb)
Winds: from the NNW (340 degrees) at 5 MPH (4 knots; 2.1 m/s)
Visibility: 6 or more miles (10+ km)
Ceiling: at least 12,000 feet AGL
Clouds: few clouds at 6000 feet AGL
Weather: no significant weather observed at this time

METAR text: UBBB 021930Z 30006KT CAVOK 21/15 Q1004 R88/D NOSIG
Conditions at: UBBB (BAKU/BINE ARPT , AZ) observed 1930 UTC 02 June 2020
Temperature: 21.0°C (70°F)
Dewpoint: 15.0°C (59°F) [RH = 69%]
Pressure (altimeter): 29.65 inches Hg (1004.0 mb)
Winds: from the WNW (300 degrees) at 7 MPH (6 knots; 3.1 m/s)
Visibility: 6 or more miles (10+ km)
Ceiling: ceiling and visibility are OK
Clouds: unknown
Weather: no significant weather observed at this time

METAR text: UBBB 021900Z VRB02KT CAVOK 20/15 Q1004 R88/D NOSIG
Conditions at: UBBB (BAKU/BINE ARPT , AZ) observed 1900 UTC 02 June 2020
Temperature: 20.0°C (68°F)
Dewpoint: 15.0°C (59°F) [RH = 73%]
Pressure (altimeter): 29.65 inches Hg (1004.0 mb)
Winds: variable direction winds at 2 MPH (2 knots; 1.0 m/s)
Visibility: 6 or more miles (10+ km)
Ceiling: ceiling and visibility are OK
Clouds: unknown
Weather: no significant weather observed at this time

METAR text: UBBB 021830Z 14004KT CAVOK 21/15 Q1004 R88/D NOSIG
Conditions at: UBBB (BAKU/BINE ARPT , AZ) observed 1830 UTC 02 June 2020
Temperature: 21.0°C (70°F)
Dewpoint: 15.0°C (59°F) [RH = 69%]
Pressure (altimeter): 29.65 inches Hg (1004.0 mb)
Winds: from the SE (140 degrees) at 5 MPH (4 knots; 2.1 m/s)
Visibility: 6 or more miles (10+ km)
Ceiling: ceiling and visibility are OK
Clouds: unknown
Weather: no significant weather observed at this time

METAR text: UBBB 021800Z 15004KT CAVOK 21/15 Q1005 R88/D NOSIG
Conditions at: UBBB (BAKU/BINE ARPT , AZ) observed 1800 UTC 02 June 2020
Temperature: 21.0°C (70°F)
Dewpoint: 15.0°C (59°F) [RH = 69%]
Pressure (altimeter): 29.68 inches Hg (1005.0 mb)
Winds: from the SSE (150 degrees) at 5 MPH (4 knots; 2.1 m/s)
Visibility: 6 or more miles (10+ km)
Ceiling: ceiling and visibility are OK
Clouds: unknown
Weather: no significant weather observed at this time

METAR text: UBBB 021730Z 17006KT CAVOK 22/14 Q1005 R88/D NOSIG
Conditions at: UBBB (BAKU/BINE ARPT , AZ) observed 1730 UTC 02 June 2020
Temperature: 22.0°C (72°F)
Dewpoint: 14.0°C (57°F) [RH = 60%]
Pressure (altimeter): 29.68 inches Hg (1005.0 mb)
Winds: from the S (170 degrees) at 7 MPH (6 knots; 3.1 m/s)
Visibility: 6 or more miles (10+ km)
Ceiling: ceiling and visibility are OK
Clouds: unknown
Weather: no significant weather observed at this time

METAR text: UBBB 021700Z 17008KT CAVOK 21/14 Q1004 R88/D NOSIG
Conditions at: UBBB (BAKU/BINE ARPT , AZ) observed 1700 UTC 02 June 2020
Temperature: 21.0°C (70°F)
Dewpoint: 14.0°C (57°F) [RH = 64%]
Pressure (altimeter): 29.65 inches Hg (1004.0 mb)
Winds: from the S (170 degrees) at 9 MPH (8 knots; 4.1 m/s)
Visibility: 6 or more miles (10+ km)
Ceiling: ceiling and visibility are OK
Clouds: unknown
Weather: no significant weather observed at this time

METAR text: UBBB 021630Z 15006KT CAVOK 22/14 Q1004 R88/D NOSIG
Conditions at: UBBB (BAKU/BINE ARPT , AZ) observed 1630 UTC 02 June 2020
Temperature: 22.0°C (72°F)
Dewpoint: 14.0°C (57°F) [RH = 60%]
Pressure (altimeter): 29.65 inches Hg (1004.0 mb)
Winds: from the SSE (150 degrees) at 7 MPH (6 knots; 3.1 m/s)
Visibility: 6 or more miles (10+ km)
Ceiling: ceiling and visibility are OK
Clouds: unknown
Weather: no significant weather observed at this time

METAR text: UBBB 021600Z 17006KT CAVOK 22/14 Q1004 R88/D NOSIG
Conditions at: UBBB (BAKU/BINE ARPT , AZ) observed 1600 UTC 02 June 2020
Temperature: 22.0°C (72°F)
Dewpoint: 14.0°C (57°F) [RH = 60%]
Pressure (altimeter): 29.65 inches Hg (1004.0 mb)
Winds: from the S (170 degrees) at 7 MPH (6 knots; 3.1 m/s)
Visibility: 6 or more miles (10+ km)
Ceiling: ceiling and visibility are OK
Clouds: unknown
Weather: no significant weather observed at this time

METAR text: UBBB 021530Z 17008KT CAVOK 23/14 Q1005 R88/D NOSIG
Conditions at: UBBB (BAKU/BINE ARPT , AZ) observed 1530 UTC 02 June 2020
Temperature: 23.0°C (73°F)
Dewpoint: 14.0°C (57°F) [RH = 57%]
Pressure (altimeter): 29.68 inches Hg (1005.0 mb)
Winds: from the S (170 degrees) at 9 MPH (8 knots; 4.1 m/s)
Visibility: 6 or more miles (10+ km)
Ceiling: ceiling and visibility are OK
Clouds: unknown
Weather: no significant weather observed at this time

METAR text: UBBB 021500Z 17014KT CAVOK 23/14 Q1004 R88/D NOSIG
Conditions at: UBBB (BAKU/BINE ARPT , AZ) observed 1500 UTC 02 June 2020
Temperature: 23.0°C (73°F)
Dewpoint: 14.0°C (57°F) [RH = 57%]
Pressure (altimeter): 29.65 inches Hg (1004.0 mb)
Winds: from the S (170 degrees) at 16 MPH (14 knots; 7.2 m/s)
Visibility: 6 or more miles (10+ km)
Ceiling: ceiling and visibility are OK
Clouds: unknown
Weather: no significant weather observed at this time

METAR text: UBBB 021430Z 17018KT CAVOK 24/14 Q1004 R88/D NOSIG
Conditions at: UBBB (BAKU/BINE ARPT , AZ) observed 1430 UTC 02 June 2020
Temperature: 24.0°C (75°F)
Dewpoint: 14.0°C (57°F) [RH = 54%]
Pressure (altimeter): 29.65 inches Hg (1004.0 mb)
Winds: from the S (170 degrees) at 21 MPH (18 knots; 9.3 m/s)
Visibility: 6 or more miles (10+ km)
Ceiling: ceiling and visibility are OK
Clouds: unknown
Weather: no significant weather observed at this time

METAR text: UBBB 021400Z 18018KT CAVOK 24/14 Q1004 R88/D NOSIG
Conditions at: UBBB (BAKU/BINE ARPT , AZ) observed 1400 UTC 02 June 2020
Temperature: 24.0°C (75°F)
Dewpoint: 14.0°C (57°F) [RH = 54%]
Pressure (altimeter): 29.65 inches Hg (1004.0 mb)
Winds: from the S (180 degrees) at 21 MPH (18 knots; 9.3 m/s)
Visibility: 6 or more miles (10+ km)
Ceiling: ceiling and visibility are OK
Clouds: unknown
Weather: no significant weather observed at this time

METAR text: UBBB 021330Z 18018KT CAVOK 25/14 Q1005 R88/D NOSIG
Conditions at: UBBB (BAKU/BINE ARPT , AZ) observed 1330 UTC 02 June 2020
Temperature: 25.0°C (77°F)
Dewpoint: 14.0°C (57°F) [RH = 50%]
Pressure (altimeter): 29.68 inches Hg (1005.0 mb)
Winds: from the S (180 degrees) at 21 MPH (18 knots; 9.3 m/s)
Visibility: 6 or more miles (10+ km)
Ceiling: ceiling and visibility are OK
Clouds: unknown
Weather: no significant weather observed at this time

METAR text: UBBB 021300Z 17018KT CAVOK 25/13 Q1005 R88/D NOSIG
Conditions at: UBBB (BAKU/BINE ARPT , AZ) observed 1300 UTC 02 June 2020
Temperature: 25.0°C (77°F)
Dewpoint: 13.0°C (55°F) [RH = 47%]
Pressure (altimeter): 29.68 inches Hg (1005.0 mb)
Winds: from the S (170 degrees) at 21 MPH (18 knots; 9.3 m/s)
Visibility: 6 or more miles (10+ km)
Ceiling: ceiling and visibility are OK
Clouds: unknown
Weather: no significant weather observed at this time

METAR text: UBBB 021230Z 17016KT CAVOK 26/13 Q1005 R88/D NOSIG
Conditions at: UBBB (BAKU/BINE ARPT , AZ) observed 1230 UTC 02 June 2020
Temperature: 26.0°C (79°F)
Dewpoint: 13.0°C (55°F) [RH = 45%]
Pressure (altimeter): 29.68 inches Hg (1005.0 mb)
Winds: from the S (170 degrees) at 18 MPH (16 knots; 8.2 m/s)
Visibility: 6 or more miles (10+ km)
Ceiling: ceiling and visibility are OK
Clouds: unknown
Weather: no significant weather observed at this time

METAR text: UBBB 021200Z 17018KT CAVOK 26/14 Q1004 R88/D NOSIG
Conditions at: UBBB (BAKU/BINE ARPT , AZ) observed 1200 UTC 02 June 2020
Temperature: 26.0°C (79°F)
Dewpoint: 14.0°C (57°F) [RH = 48%]
Pressure (altimeter): 29.65 inches Hg (1004.0 mb)
Winds: from the S (170 degrees) at 21 MPH (18 knots; 9.3 m/s)
Visibility: 6 or more miles (10+ km)
Ceiling: ceiling and visibility are OK
Clouds: unknown
Weather: no significant weather observed at this time

METAR text: UBBB 021130Z 17018KT CAVOK 26/14 Q1005 R88/D NOSIG
Conditions at: UBBB (BAKU/BINE ARPT , AZ) observed 1130 UTC 02 June 2020
Temperature: 26.0°C (79°F)
Dewpoint: 14.0°C (57°F) [RH = 48%]
Pressure (altimeter): 29.68 inches Hg (1005.0 mb)
Winds: from the S (170 degrees) at 21 MPH (18 knots; 9.3 m/s)
Visibility: 6 or more miles (10+ km)
Ceiling: ceiling and visibility are OK
Clouds: unknown
Weather: no significant weather observed at this time

METAR text: UBBB 021100Z 17018KT CAVOK 26/14 Q1006 R88/D NOSIG
Conditions at: UBBB (BAKU/BINE ARPT , AZ) observed 1100 UTC 02 June 2020
Temperature: 26.0°C (79°F)
Dewpoint: 14.0°C (57°F) [RH = 48%]
Pressure (altimeter): 29.70 inches Hg (1006.0 mb)
Winds: from the S (170 degrees) at 21 MPH (18 knots; 9.3 m/s)
Visibility: 6 or more miles (10+ km)
Ceiling: ceiling and visibility are OK
Clouds: unknown
Weather: no significant weather observed at this time

METAR text: UBBB 021030Z 17014KT CAVOK 27/14 Q1005 R88/D NOSIG
Conditions at: UBBB (BAKU/BINE ARPT , AZ) observed 1030 UTC 02 June 2020
Temperature: 27.0°C (81°F)
Dewpoint: 14.0°C (57°F) [RH = 45%]
Pressure (altimeter): 29.68 inches Hg (1005.0 mb)
Winds: from the S (170 degrees) at 16 MPH (14 knots; 7.2 m/s)
Visibility: 6 or more miles (10+ km)
Ceiling: ceiling and visibility are OK
Clouds: unknown
Weather: no significant weather observed at this time

METAR text: UBBB 021000Z 17016KT CAVOK 27/14 Q1006 R88/D NOSIG
Conditions at: UBBB (BAKU/BINE ARPT , AZ) observed 1000 UTC 02 June 2020
Temperature: 27.0°C (81°F)
Dewpoint: 14.0°C (57°F) [RH = 45%]
Pressure (altimeter): 29.70 inches Hg (1006.0 mb)
Winds: from the S (170 degrees) at 18 MPH (16 knots; 8.2 m/s)
Visibility: 6 or more miles (10+ km)
Ceiling: ceiling and visibility are OK
Clouds: unknown
Weather: no significant weather observed at this time

METAR text: UBBB 020930Z 17016KT CAVOK 27/15 Q1006 R88/D NOSIG
Conditions at: UBBB (BAKU/BINE ARPT , AZ) observed 0930 UTC 02 June 2020
Temperature: 27.0°C (81°F)
Dewpoint: 15.0°C (59°F) [RH = 48%]
Pressure (altimeter): 29.70 inches Hg (1006.0 mb)
Winds: from the S (170 degrees) at 18 MPH (16 knots; 8.2 m/s)
Visibility: 6 or more miles (10+ km)
Ceiling: ceiling and visibility are OK
Clouds: unknown
Weather: no significant weather observed at this time

METAR text: UBBB 020900Z 16014KT CAVOK 26/16 Q1006 R88/CLRD// NOSIG
Conditions at: UBBB (BAKU/BINE ARPT , AZ) observed 0900 UTC 02 June 2020
Temperature: 26.0°C (79°F)
Dewpoint: 16.0°C (61°F) [RH = 54%]
Pressure (altimeter): 29.70 inches Hg (1006.0 mb)
Winds: from the SSE (160 degrees) at 16 MPH (14 knots; 7.2 m/s)
Visibility: 6 or more miles (10+ km)
Ceiling: ceiling and visibility are OK
Clouds: unknown
Weather: no significant weather observed at this time

METAR text: UBBB 020830Z 18014KT CAVOK 26/17 Q1007 R88/D NOSIG
Conditions at: UBBB (BAKU/BINE ARPT , AZ) observed 0830 UTC 02 June 2020
Temperature: 26.0°C (79°F)
Dewpoint: 17.0°C (63°F) [RH = 58%]
Pressure (altimeter): 29.73 inches Hg (1007.0 mb)
Winds: from the S (180 degrees) at 16 MPH (14 knots; 7.2 m/s)
Visibility: 6 or more miles (10+ km)
Ceiling: ceiling and visibility are OK
Clouds: unknown
Weather: no significant weather observed at this time

METAR text: UBBB 020800Z 18014KT CAVOK 26/16 Q1007 R88/D NOSIG
Conditions at: UBBB (BAKU/BINE ARPT , AZ) observed 0800 UTC 02 June 2020
Temperature: 26.0°C (79°F)
Dewpoint: 16.0°C (61°F) [RH = 54%]
Pressure (altimeter): 29.73 inches Hg (1007.0 mb)
Winds: from the S (180 degrees) at 16 MPH (14 knots; 7.2 m/s)
Visibility: 6 or more miles (10+ km)
Ceiling: ceiling and visibility are OK
Clouds: unknown
Weather: no significant weather observed at this time

METAR text: UBBB 020730Z 18012KT CAVOK 26/15 Q1007 R88/D NOSIG
Conditions at: UBBB (BAKU/BINE ARPT , AZ) observed 0730 UTC 02 June 2020
Temperature: 26.0°C (79°F)
Dewpoint: 15.0°C (59°F) [RH = 51%]
Pressure (altimeter): 29.73 inches Hg (1007.0 mb)
Winds: from the S (180 degrees) at 14 MPH (12 knots; 6.2 m/s)
Visibility: 6 or more miles (10+ km)
Ceiling: ceiling and visibility are OK
Clouds: unknown
Weather: no significant weather observed at this time

METAR text: UBBB 020700Z 17012KT CAVOK 26/16 Q1007 R88/D NOSIG
Conditions at: UBBB (BAKU/BINE ARPT , AZ) observed 0700 UTC 02 June 2020
Temperature: 26.0°C (79°F)
Dewpoint: 16.0°C (61°F) [RH = 54%]
Pressure (altimeter): 29.73 inches Hg (1007.0 mb)
Winds: from the S (170 degrees) at 14 MPH (12 knots; 6.2 m/s)
Visibility: 6 or more miles (10+ km)
Ceiling: ceiling and visibility are OK
Clouds: unknown
Weather: no significant weather observed at this time

METAR text: UBBB 020630Z 16010KT CAVOK 26/16 Q1007 R88/D NOSIG
Conditions at: UBBB (BAKU/BINE ARPT , AZ) observed 0630 UTC 02 June 2020
Temperature: 26.0°C (79°F)
Dewpoint: 16.0°C (61°F) [RH = 54%]
Pressure (altimeter): 29.73 inches Hg (1007.0 mb)
Winds: from the SSE (160 degrees) at 12 MPH (10 knots; 5.1 m/s)
Visibility: 6 or more miles (10+ km)
Ceiling: ceiling and visibility are OK
Clouds: unknown
Weather: no significant weather observed at this time

METAR text: UBBB 020600Z 21008KT CAVOK 26/17 Q1008 R88/D NOSIG
Conditions at: UBBB (BAKU/BINE ARPT , AZ) observed 0600 UTC 02 June 2020
Temperature: 26.0°C (79°F)
Dewpoint: 17.0°C (63°F) [RH = 58%]
Pressure (altimeter): 29.76 inches Hg (1008.0 mb)
Winds: from the SSW (210 degrees) at 9 MPH (8 knots; 4.1 m/s)
Visibility: 6 or more miles (10+ km)
Ceiling: ceiling and visibility are OK
Clouds: unknown
Weather: no significant weather observed at this time

METAR text: UBBB 020530Z 18008KT CAVOK 26/16 Q1008 R88/D NOSIG
Conditions at: UBBB (BAKU/BINE ARPT , AZ) observed 0530 UTC 02 June 2020
Temperature: 26.0°C (79°F)
Dewpoint: 16.0°C (61°F) [RH = 54%]
Pressure (altimeter): 29.76 inches Hg (1008.0 mb)
Winds: from the S (180 degrees) at 9 MPH (8 knots; 4.1 m/s)
Visibility: 6 or more miles (10+ km)
Ceiling: ceiling and visibility are OK
Clouds: unknown
Weather: no significant weather observed at this time

METAR text: UBBB 020500Z 20004KT CAVOK 25/15 Q1008 R88/CLRD// NOSIG
Conditions at: UBBB (BAKU/BINE ARPT , AZ) observed 0500 UTC 02 June 2020
Temperature: 25.0°C (77°F)
Dewpoint: 15.0°C (59°F) [RH = 54%]
Pressure (altimeter): 29.76 inches Hg (1008.0 mb)
Winds: from the SSW (200 degrees) at 5 MPH (4 knots; 2.1 m/s)
Visibility: 6 or more miles (10+ km)
Ceiling: ceiling and visibility are OK
Clouds: unknown
Weather: no significant weather observed at this time

METAR text: UBBB 020430Z 25004KT CAVOK 24/15 Q1007 R88/D NOSIG
Conditions at: UBBB (BAKU/BINE ARPT , AZ) observed 0430 UTC 02 June 2020
Temperature: 24.0°C (75°F)
Dewpoint: 15.0°C (59°F) [RH = 57%]
Pressure (altimeter): 29.73 inches Hg (1007.0 mb)
Winds: from the WSW (250 degrees) at 5 MPH (4 knots; 2.1 m/s)
Visibility: 6 or more miles (10+ km)
Ceiling: ceiling and visibility are OK
Clouds: unknown
Weather: no significant weather observed at this time

METAR text: UBBB 020400Z 24004KT CAVOK 23/16 Q1008 R88/D NOSIG
Conditions at: UBBB (BAKU/BINE ARPT , AZ) observed 0400 UTC 02 June 2020
Temperature: 23.0°C (73°F)
Dewpoint: 16.0°C (61°F) [RH = 65%]
Pressure (altimeter): 29.76 inches Hg (1008.0 mb)
Winds: from the WSW (240 degrees) at 5 MPH (4 knots; 2.1 m/s)
Visibility: 6 or more miles (10+ km)
Ceiling: ceiling and visibility are OK
Clouds: unknown
Weather: no significant weather observed at this time

METAR text: UBBB 020330Z 21008KT CAVOK 22/17 Q1008 R88/D NOSIG
Conditions at: UBBB (BAKU/BINE ARPT , AZ) observed 0330 UTC 02 June 2020
Temperature: 22.0°C (72°F)
Dewpoint: 17.0°C (63°F) [RH = 73%]
Pressure (altimeter): 29.76 inches Hg (1008.0 mb)
Winds: from the SSW (210 degrees) at 9 MPH (8 knots; 4.1 m/s)
Visibility: 6 or more miles (10+ km)
Ceiling: ceiling and visibility are OK
Clouds: unknown
Weather: no significant weather observed at this time

Forecast for: AMD
Text: TAF AMD UBBB 031141Z 0312/0412 33016G26KT CAVOK TX32/0312Z TN18/0401Z
Forecast period: 1200 to 1500 UTC 03 June 2020
Forecast type: FROM: standard forecast or significant change
Winds: from the NNW (330 degrees) at 18 MPH (16 knots; 8.2 m/s)
gusting to 30 MPH (26 knots; 13.4 m/s)
Visibility: 6 or more miles 10+ km)
Ceiling: unknown
Clouds: missing
Weather: no significant weather forecast for this period
Text: TEMPO 0312/0313 27010KT
Forecast period: 1200 to 1300 UTC 03 June 2020
Forecast type: TEMPORARY: The following changes expected for less than half the time period
Winds: from the W (270 degrees) at 12 MPH (10 knots; 5.1 m/s)
Visibility: missing
Ceiling: unknown
Clouds: missing
Weather: no significant weather forecast for this period
Text: BECMG 0315/0317 FEW010 SCT050CB BKN100
Forecast period: 1500 to 2200 UTC 03 June 2020
Forecast type: BECOMING: Conditions expected to become as follows by 1700 UTC 03 June 2020
Winds: from the NNW (330 degrees) at 18 MPH (16 knots; 8.2 m/s)
gusting to 30 MPH (26 knots; 13.4 m/s)
Visibility: 6 or more miles 10+ km)
Ceiling: 10000 feet AGL
Clouds: few clouds at 1000 feet AGL
scattered clouds at 5000 feet AGL
broken clouds at 10000 feet AGL
Weather: no significant weather forecast for this period
Text: PROB40
Forecast period: 1500 to 2200 UTC 03 June 2020
Forecast type: TEMPORARY: The following changes expected for less than half the time period
Visibility: missing
Ceiling: unknown
Clouds: missing
Weather: -TSRA  (light rain associated with thunderstorm(s))
Text: TEMPO 0315/0322 -TSRA
Forecast period: 2200 UTC 03 June 2020 to 1200 UTC 04 June 2020
Forecast type: BECOMING: Conditions expected to become as follows by 0000 UTC 04 June 2020
Winds: from the NNW (330 degrees) at 28 MPH (24 knots; 12.3 m/s)
gusting to 39 MPH (34 knots; 17.5 m/s)
Visibility: 6 or more miles 10+ km)
Ceiling: 10000 feet AGL
Clouds: few clouds at 1000 feet AGL
scattered clouds at 5000 feet AGL
broken clouds at 10000 feet AGL
Weather: no significant weather forecast for this period
Text: BECMG 0322/0324 33024G34KT
Forecast period: 0200 to 1000 UTC 04 June 2020
Forecast type: TEMPORARY: The following changes expected for less than half the time period
Winds: from the NNW (330 degrees) at 34 MPH (30 knots; 15.4 m/s)
gusting to 46 MPH (40 knots; 20.6 m/s)
Visibility: missing
Ceiling: unknown
Clouds: missing
Weather: no significant weather forecast for this period